sensor_id;sensor_type;location;lat;lon;timestamp;P1;durP1;ratioP1;P2;durP2;ratioP2
16177;SDS011;8195;51.220;9.746;2023-03-01T05:14:39;10.87;;;9.47;;
16177;SDS011;8195;51.220;9.746;2023-03-01T05:24:40;9.80;;;8.80;;
16177;SDS011;8195;51.220;9.746;2023-03-01T05:34:41;10.97;;;9.00;;
16177;SDS011;8195;51.220;9.746;2023-03-01T05:44:42;9.93;;;8.57;;
16177;SDS011;8195;51.220;9.746;2023-03-01T05:54:42;9.73;;;8.73;;
16177;SDS011;8195;51.220;9.746;2023-03-01T06:04:43;10.10;;;8.50;;
16177;SDS011;8195;51.220;9.746;2023-03-01T06:14:44;12.33;;;8.90;;
16177;SDS011;8195;51.220;9.746;2023-03-01T06:24:46;9.20;;;7.17;;
16177;SDS011;8195;51.220;9.746;2023-03-01T06:34:46;10.53;;;8.93;;
16177;SDS011;8195;51.220;9.746;2023-03-01T06:44:47;11.65;;;8.82;;
16177;SDS011;8195;51.220;9.746;2023-03-01T06:54:47;11.17;;;8.90;;
16177;SDS011;8195;51.220;9.746;2023-03-01T07:04:48;10.77;;;8.77;;
16177;SDS011;8195;51.220;9.746;2023-03-01T07:14:50;9.20;;;8.23;;
16177;SDS011;8195;51.220;9.746;2023-03-01T07:24:50;10.75;;;9.43;;
16177;SDS011;8195;51.220;9.746;2023-03-01T07:34:51;11.77;;;9.32;;
16177;SDS011;8195;51.220;9.746;2023-03-01T07:44:51;10.53;;;8.03;;
16177;SDS011;8195;51.220;9.746;2023-03-01T07:54:52;10.15;;;9.05;;
16177;SDS011;8195;51.220;9.746;2023-03-01T08:04:52;9.23;;;8.32;;
16177;SDS011;8195;51.220;9.746;2023-03-01T08:14:53;10.45;;;9.45;;
16177;SDS011;8195;51.220;9.746;2023-03-01T08:24:54;10.03;;;9.03;;
16177;SDS011;8195;51.220;9.746;2023-03-01T08:34:54;9.30;;;8.40;;
16177;SDS011;8195;51.220;9.746;2023-03-01T08:44:55;9.60;;;8.70;;
16177;SDS011;8195;51.220;9.746;2023-03-01T08:54:56;9.43;;;8.52;;
16177;SDS011;8195;51.220;9.746;2023-03-01T09:04:56;10.73;;;9.73;;
16177;SDS011;8195;51.220;9.746;2023-03-01T09:14:57;10.37;;;9.47;;
16177;SDS011;8195;51.220;9.746;2023-03-01T09:24:57;10.53;;;9.63;;
16177;SDS011;8195;51.220;9.746;2023-03-01T09:34:58;11.67;;;9.50;;
16177;SDS011;8195;51.220;9.746;2023-03-01T09:45:03;10.02;;;9.13;;
16177;SDS011;8195;51.220;9.746;2023-03-01T09:55:10;9.70;;;8.90;;
16177;SDS011;8195;51.220;9.746;2023-03-01T10:15:44;11.67;;;10.77;;
16177;SDS011;8195;51.220;9.746;2023-03-01T10:25:56;12.10;;;11.00;;
16177;SDS011;8195;51.220;9.746;2023-03-01T10:36:11;11.43;;;10.43;;
16177;SDS011;8195;51.220;9.746;2023-03-01T10:56:51;11.00;;;10.10;;
16177;SDS011;8195;51.220;9.746;2023-03-01T11:06:58;10.17;;;9.10;;
16177;SDS011;8195;51.220;9.746;2023-03-01T11:27:35;8.63;;;7.83;;
16177;SDS011;8195;51.220;9.746;2023-03-01T12:09:01;12.67;;;10.37;;
16177;SDS011;8195;51.220;9.746;2023-03-01T12:18:54;10.60;;;9.50;;
16177;SDS011;8195;51.220;9.746;2023-03-01T12:29:12;11.77;;;9.57;;
16177;SDS011;8195;51.220;9.746;2023-03-01T12:39:38;10.97;;;9.97;;
16177;SDS011;8195;51.220;9.746;2023-03-01T12:49:55;8.80;;;7.77;;
16177;SDS011;8195;51.220;9.746;2023-03-01T13:10:48;10.10;;;8.73;;
16177;SDS011;8195;51.220;9.746;2023-03-01T13:20:55;12.03;;;9.90;;
16177;SDS011;8195;51.220;9.746;2023-03-01T13:30:58;10.87;;;9.77;;
16177;SDS011;8195;51.220;9.746;2023-03-01T13:40:59;9.10;;;8.17;;
16177;SDS011;8195;51.220;9.746;2023-03-01T13:51:02;9.80;;;8.80;;
16177;SDS011;8195;51.220;9.746;2023-03-01T14:01:20;10.40;;;9.20;;
16177;SDS011;8195;51.220;9.746;2023-03-01T14:21:39;9.00;;;7.57;;
16177;SDS011;8195;51.220;9.746;2023-03-01T14:31:39;8.03;;;6.83;;
16177;SDS011;8195;51.220;9.746;2023-03-01T14:41:40;8.43;;;7.40;;
16177;SDS011;8195;51.220;9.746;2023-03-01T14:51:42;8.55;;;7.28;;
16177;SDS011;8195;51.220;9.746;2023-03-01T15:01:48;8.00;;;7.07;;
16177;SDS011;8195;51.220;9.746;2023-03-01T15:11:54;7.80;;;7.00;;
16177;SDS011;8195;51.220;9.746;2023-03-01T15:21:55;7.53;;;6.10;;
16177;SDS011;8195;51.220;9.746;2023-03-01T15:31:57;9.50;;;6.67;;
16177;SDS011;8195;51.220;9.746;2023-03-01T15:41:59;6.20;;;5.37;;
16177;SDS011;8195;51.220;9.746;2023-03-01T15:52:01;6.87;;;6.17;;
16177;SDS011;8195;51.220;9.746;2023-03-01T16:02:07;6.70;;;6.00;;
16177;SDS011;8195;51.220;9.746;2023-03-01T16:12:15;7.00;;;6.03;;
16177;SDS011;8195;51.220;9.746;2023-03-01T16:22:16;6.83;;;5.87;;
16177;SDS011;8195;51.220;9.746;2023-03-01T16:32:17;7.15;;;6.45;;
16177;SDS011;8195;51.220;9.746;2023-03-01T16:42:18;8.57;;;6.40;;
16177;SDS011;8195;51.220;9.746;2023-03-01T16:52:18;6.95;;;6.15;;
16177;SDS011;8195;51.220;9.746;2023-03-01T17:02:19;7.20;;;6.50;;
16177;SDS011;8195;51.220;9.746;2023-03-01T17:12:20;7.37;;;6.50;;
16177;SDS011;8195;51.220;9.746;2023-03-01T17:22:21;7.57;;;6.10;;
16177;SDS011;8195;51.220;9.746;2023-03-01T17:32:21;6.40;;;5.63;;
16177;SDS011;8195;51.220;9.746;2023-03-01T17:42:22;5.65;;;5.15;;
16177;SDS011;8195;51.220;9.746;2023-03-01T17:52:22;7.20;;;5.65;;
16177;SDS011;8195;51.220;9.746;2023-03-01T18:02:23;8.15;;;5.82;;
16177;SDS011;8195;51.220;9.746;2023-03-01T18:12:23;8.00;;;5.85;;
16177;SDS011;8195;51.220;9.746;2023-03-01T18:22:24;8.50;;;5.10;;
16177;SDS011;8195;51.220;9.746;2023-03-01T18:32:25;7.47;;;5.73;;
16177;SDS011;8195;51.220;9.746;2023-03-01T18:42:25;5.93;;;5.15;;
16177;SDS011;8195;51.220;9.746;2023-03-01T18:52:26;7.78;;;5.72;;
16177;SDS011;8195;51.220;9.746;2023-03-01T19:02:26;6.03;;;5.43;;
16177;SDS011;8195;51.220;9.746;2023-03-01T19:12:27;8.52;;;6.22;;
16177;SDS011;8195;51.220;9.746;2023-03-01T19:22:27;6.30;;;5.70;;
16177;SDS011;8195;51.220;9.746;2023-03-01T19:32:28;6.87;;;6.17;;
16177;SDS011;8195;51.220;9.746;2023-03-01T19:42:28;7.40;;;6.25;;
16177;SDS011;8195;51.220;9.746;2023-03-01T19:52:29;6.50;;;5.80;;
16177;SDS011;8195;51.220;9.746;2023-03-01T20:02:30;7.13;;;6.20;;
16177;SDS011;8195;51.220;9.746;2023-03-01T20:12:30;6.77;;;5.97;;
16177;SDS011;8195;51.220;9.746;2023-03-01T20:22:31;8.02;;;6.20;;
16177;SDS011;8195;51.220;9.746;2023-03-01T20:32:32;9.35;;;6.53;;
16177;SDS011;8195;51.220;9.746;2023-03-01T20:42:32;7.30;;;5.87;;
16177;SDS011;8195;51.220;9.746;2023-03-01T20:52:33;9.32;;;6.43;;
16177;SDS011;8195;51.220;9.746;2023-03-01T21:02:33;8.48;;;6.90;;
16177;SDS011;8195;51.220;9.746;2023-03-01T21:12:34;8.07;;;6.38;;
16177;SDS011;8195;51.220;9.746;2023-03-01T21:22:35;7.13;;;6.22;;
16177;SDS011;8195;51.220;9.746;2023-03-01T21:32:35;7.25;;;5.95;;
16177;SDS011;8195;51.220;9.746;2023-03-01T21:42:36;7.25;;;6.43;;
16177;SDS011;8195;51.220;9.746;2023-03-01T21:52:36;6.95;;;6.10;;
16177;SDS011;8195;51.220;9.746;2023-03-01T22:02:37;8.70;;;6.65;;
16177;SDS011;8195;51.220;9.746;2023-03-01T22:12:37;8.87;;;7.43;;
16177;SDS011;8195;51.220;9.746;2023-03-01T22:22:38;7.28;;;6.57;;
16177;SDS011;8195;51.220;9.746;2023-03-01T22:32:39;9.57;;;6.90;;
16177;SDS011;8195;51.220;9.746;2023-03-01T22:42:39;7.97;;;7.18;;
16177;SDS011;8195;51.220;9.746;2023-03-01T22:52:40;7.47;;;6.50;;
16177;SDS011;8195;51.220;9.746;2023-03-01T23:02:40;7.90;;;6.90;;
16177;SDS011;8195;51.220;9.746;2023-03-01T23:12:41;7.40;;;6.53;;
16177;SDS011;8195;51.220;9.746;2023-03-01T23:22:42;9.53;;;7.20;;
16177;SDS011;8195;51.220;9.746;2023-03-01T23:32:42;9.80;;;7.45;;
16177;SDS011;8195;51.220;9.746;2023-03-01T23:42:43;8.55;;;6.93;;
16177;SDS011;8195;51.220;9.746;2023-03-01T23:52:43;10.23;;;7.22;;
